To NAV CANADA Home Page Login to a new session Search on AWWS site Feedback and Comments Disclaimer Vers la page française équivalente Tips FAQ What's new on the site To the Forecasts and Observations / NOTAM section To "File a Flight Plan" website Publications and other links Update of the User's profile FIC Telephone Numbers My Weather Data Folder Route Weather Data Regional Weather Data Local Weather Data To the Forecasts and Observations / NOTAM section
Request Generated 12/04/2016 at 22:19:32 UTC . Weather information available at that time is displayed.

METAR/TAF

MONT-JOLI/QC    

METAR CYYY 042200Z 30009G15KT 30SM FEW027 M04/M10 A3014 RMK SC2
SLP210=
METAR CYYY 042100Z 31010G15KT 30SM FEW025 M05/M10 A3013 RMK SC2
SLP207=
METAR CYYY 042000Z 30009KT 30SM SCT025 M05/M10 A3013 RMK SC4 SLP207=

TAF CYYY 041939Z 0420/0508 32012KT P6SM -SN OVC020 TEMPO 0420/0423
P6SM NSW BKN025
FM042300 31012KT P6SM BKN020 TEMPO 0423/0508 SCT020
RMK NXT FCST BY 050200Z=
Your time UTC time
Weather data provided by Environment Canada and NAV CANADA